Jessup, Indiana
Current Conditions -  °F | °C
As of 3:53 AM on Friday 19 Dec 2014 (Local Time) from KHUF Reporting Station
Overcast Overcast  
Wind Chill: 23°   Ceiling: 1600
Heat Index: 28°   Visibility: 10mi
Dew Point: 22°   Wind: 5mph
Humidity: 78%   Direction: 340°NNW
Pressure: 30.28"   Gusts: NA
Location:  39.6386°N, 87.3045°W
Report Text: KHUF 190853Z 34004KT 10SM OVC016 M02/M06 A3028 RMK AO2 SLP262 T10221056 50002
Loading
Personal Weather Stations






























Interactive Weather Map New forecast layout! Learn more

10-Day Weather Forecast

Advertisements
Track Severe Weather on mobile